Aviation Digital Data Service (ADDS)

Output produced by METARs form (2119 UTC 24 May 2017)
found at http://aviationweather.gov/adds/metars/
 
KORD 242109Z 2421/2524 02014G20KT P6SM VCSH SCT009 BKN020 
     FM250100 36010KT P6SM VCSH SCT007 SCT015 BKN030 
     FM250400 35009KT P6SM SCT007 OVC012 
     FM252000 34010KT P6SM SCT025